Time;durP1;ratioP1;P1;durP2;ratioP2;P2;SDS_P1;SDS_P2;PMS_P1;PMS_P2;Temp;Humidity;BMP_temperature;BMP_pressure;BME280_temperature;BME280_humidity;BME280_pressure;Samples;Min_cycle;Max_cycle;Signal;HPM_P1;HPM_P2
2022/07/10 00:01:01;;;;;;;3.08;1.15;;;;;;;21.49;45.46;99624.00;4499668;31;33770;-59
2022/07/10 00:03:29;;;;;;;3.05;0.98;;;;;;;22.13;44.00;99625.22;4498482;31;32993;-60
2022/07/10 00:05:57;;;;;;;2.40;1.10;;;;;;;22.16;44.04;99617.53;4487663;31;34210;-59
2022/07/10 00:08:24;;;;;;;5.45;1.10;;;;;;;21.76;45.33;99614.28;4499089;31;33330;-59
2022/07/10 00:10:52;;;;;;;2.65;1.10;;;;;;;21.96;44.79;99613.69;4496708;31;35317;-59
2022/07/10 00:13:20;;;;;;;1.77;1.17;;;;;;;21.78;45.38;99611.41;4497655;31;34212;-59
2022/07/10 00:15:47;;;;;;;2.97;1.10;;;;;;;21.28;46.88;99616.53;4498990;31;33766;-59
2022/07/10 00:18:15;;;;;;;3.05;0.98;;;;;;;21.04;47.82;99611.38;4494312;31;33331;-59
2022/07/10 00:20:43;;;;;;;1.08;0.80;;;;;;;20.99;48.21;99613.78;4491897;31;33633;-62
2022/07/10 00:23:10;;;;;;;2.75;1.20;;;;;;;21.23;47.51;99612.72;4491789;31;35520;-62
2022/07/10 00:25:38;;;;;;;3.15;1.12;;;;;;;20.83;48.49;99617.50;4495632;31;32869;-60
2022/07/10 00:28:06;;;;;;;1.90;1.00;;;;;;;21.28;47.64;99621.97;4497749;31;34461;-59
2022/07/10 00:30:33;;;;;;;3.80;1.15;;;;;;;21.37;47.50;99617.34;4485351;31;33806;-60
2022/07/10 00:33:01;;;;;;;1.58;0.93;;;;;;;21.52;47.32;99618.19;4498452;31;33714;-59
2022/07/10 00:35:29;;;;;;;1.37;0.95;;;;;;;21.03;48.38;99610.53;4497788;31;35358;-60
2022/07/10 00:37:56;;;;;;;2.50;1.12;;;;;;;20.86;49.12;99612.53;4492942;31;33691;-61
2022/07/10 00:40:24;;;;;;;2.12;1.05;;;;;;;20.90;49.24;99611.16;4494347;31;33616;-59
2022/07/10 00:42:52;;;;;;;2.85;1.20;;;;;;;20.97;49.19;99618.59;4496662;31;34167;-61
2022/07/10 00:45:19;;;;;;;2.17;1.05;;;;;;;20.92;49.46;99616.41;4495052;31;34252;-60
2022/07/10 00:47:47;;;;;;;2.50;1.23;;;;;;;21.00;49.33;99612.78;4491788;31;31999;-62
2022/07/10 00:50:15;;;;;;;2.45;1.20;;;;;;;21.17;48.94;99608.84;4497502;31;33595;-63
2022/07/10 00:52:42;;;;;;;0.70;0.70;;;;;;;20.52;50.86;99604.03;4493222;31;34855;-60
2022/07/10 00:55:10;;;;;;;2.67;1.35;;;;;;;21.02;49.66;99606.09;4490186;31;36004;-59
2022/07/10 00:57:39;;;;;;;2.00;1.20;;;;;;;20.95;49.86;99616.03;4500097;31;33546;-60
2022/07/10 01:00:09;;;;;;;1.30;1.00;;;;;;;20.85;50.26;99607.31;4498516;31;34615;-60
2022/07/10 01:02:42;;;;;;;3.35;1.40;;;;;;;20.94;50.17;99609.75;4498920;31;33745;-60
2022/07/10 01:05:10;;;;;;;1.62;0.85;;;;;;;20.66;51.17;99606.78;4495497;31;33939;-60
2022/07/10 01:07:39;;;;;;;1.98;1.20;;;;;;;20.75;51.01;99607.56;4498998;31;33287;-62
2022/07/10 01:10:07;;;;;;;2.28;1.30;;;;;;;20.46;51.80;99600.13;4499664;31;33825;-60
2022/07/10 01:12:34;;;;;;;1.75;1.00;;;;;;;20.37;52.18;99598.50;4499468;31;34317;-59
2022/07/10 01:15:02;;;;;;;1.33;0.95;;;;;;;20.54;51.71;99607.41;4498889;31;34311;-60
2022/07/10 01:17:30;;;;;;;1.25;0.95;;;;;;;20.88;50.78;99606.94;4498498;31;34438;-60
2022/07/10 01:19:58;;;;;;;1.85;1.00;;;;;;;20.59;51.49;99613.97;4487220;31;33530;-61
2022/07/10 01:22:26;;;;;;;3.08;1.33;;;;;;;20.93;50.44;99608.09;4487200;31;32921;-60
2022/07/10 01:24:54;;;;;;;1.60;1.00;;;;;;;20.63;51.39;99609.03;4498208;31;35206;-61
2022/07/10 01:27:21;;;;;;;2.40;1.15;;;;;;;20.77;51.19;99612.81;4495613;31;33572;-61
2022/07/10 01:29:49;;;;;;;2.25;1.33;;;;;;;21.18;49.89;99610.53;4498177;31;34184;-59
2022/07/10 01:32:17;;;;;;;2.00;1.10;;;;;;;21.03;50.22;99607.81;4497587;31;33648;-60
2022/07/10 01:34:46;;;;;;;1.87;1.05;;;;;;;21.73;48.40;99606.50;4499138;31;34285;-63
2022/07/10 01:37:14;;;;;;;2.37;1.10;;;;;;;20.73;50.72;99611.50;4491191;31;33340;-61
2022/07/10 01:39:42;;;;;;;2.00;1.17;;;;;;;20.56;51.24;99611.63;4496902;31;33991;-59
2022/07/10 01:42:09;;;;;;;3.17;1.50;;;;;;;20.49;51.56;99607.94;4496489;31;33991;-60
2022/07/10 01:44:37;;;;;;;1.70;1.08;;;;;;;20.91;50.06;99599.25;4497964;31;33838;-60
2022/07/10 01:47:05;;;;;;;1.37;1.02;;;;;;;20.99;49.85;99603.75;4499136;31;33428;-62
2022/07/10 01:49:33;;;;;;;2.42;1.23;;;;;;;21.06;49.81;99595.69;4500200;31;34910;-59
2022/07/10 01:52:01;;;;;;;1.67;1.20;;;;;;;21.03;49.72;99594.22;4500471;31;33909;-60
2022/07/10 01:54:29;;;;;;;2.45;1.20;;;;;;;21.34;48.96;99588.56;4500390;31;35040;-61
2022/07/10 01:56:56;;;;;;;3.75;1.30;;;;;;;21.79;47.84;99581.22;4490257;31;32879;-59
2022/07/10 01:59:24;;;;;;;3.33;1.20;;;;;;;21.66;47.98;99583.78;4492690;31;32366;-60
2022/07/10 02:01:52;;;;;;;5.47;1.37;;;;;;;21.79;47.48;99586.69;4485606;31;35309;-61
2022/07/10 02:07:14;;;;;;;3.30;1.35;;;;;;;21.80;47.66;99574.75;4497647;31;33499;-60
2022/07/10 02:09:43;;;;;;;3.05;1.30;;;;;;;22.04;46.69;99584.44;4497780;31;33372;-62
2022/07/10 02:12:12;;;;;;;2.95;1.55;;;;;;;21.83;47.21;99576.28;4499385;31;34137;-60
2022/07/10 02:14:41;;;;;;;2.78;1.40;;;;;;;22.22;46.33;99577.78;4499582;31;33955;-60
2022/07/10 02:17:08;;;;;;;1.95;1.30;;;;;;;22.31;46.14;99574.72;4498694;31;33370;-60
2022/07/10 02:19:36;;;;;;;2.35;1.12;;;;;;;22.25;46.04;99569.22;4498902;31;33548;-61
2022/07/10 02:22:04;;;;;;;2.60;1.30;;;;;;;22.38;46.07;99576.66;4498392;31;34848;-61
2022/07/10 02:24:32;;;;;;;2.45;1.50;;;;;;;21.99;46.86;99565.13;4499911;31;34190;-63
2022/07/10 02:26:59;;;;;;;3.33;1.37;;;;;;;21.66;48.00;99577.50;4498705;31;33411;-60
2022/07/10 02:29:27;;;;;;;1.80;1.23;;;;;;;21.86;47.35;99575.84;4499664;31;32537;-60
2022/07/10 02:31:54;;;;;;;1.75;1.15;;;;;;;22.17;46.73;99582.94;4497710;31;34879;-61
2022/07/10 02:34:22;;;;;;;3.22;1.52;;;;;;;22.22;46.46;99577.78;4483074;31;34046;-61
2022/07/10 02:36:50;;;;;;;2.28;1.37;;;;;;;22.38;46.20;99565.78;4492542;31;33695;-60
2022/07/10 02:39:18;;;;;;;3.37;1.50;;;;;;;21.99;47.16;99575.16;4497026;31;33540;-62
2022/07/10 02:41:46;;;;;;;3.05;1.48;;;;;;;22.11;46.95;99576.34;4498752;31;34020;-60
2022/07/10 02:44:13;;;;;;;2.70;1.50;;;;;;;22.32;46.40;99579.13;4499840;31;33499;-60
2022/07/10 02:46:41;;;;;;;2.58;1.58;;;;;;;22.43;46.05;99569.56;4499262;31;33323;-59
2022/07/10 02:49:09;;;;;;;4.22;1.55;;;;;;;21.71;47.96;99572.34;4499483;31;33537;-60
2022/07/10 02:51:36;;;;;;;2.58;1.40;;;;;;;22.00;47.18;99563.25;4497980;31;35119;-60
2022/07/10 02:54:04;;;;;;;2.20;1.40;;;;;;;21.59;48.19;99567.37;4498290;31;33845;-61
2022/07/10 02:56:32;;;;;;;3.28;1.67;;;;;;;21.90;47.54;99566.28;4498063;31;33721;-62
2022/07/10 02:58:59;;;;;;;2.65;1.62;;;;;;;22.04;47.01;99570.00;4499293;31;33577;-60
2022/07/10 03:01:27;;;;;;;3.78;1.80;;;;;;;21.96;47.25;99570.97;4497849;31;33905;-60
2022/07/10 03:03:54;;;;;;;4.80;1.73;;;;;;;21.42;48.70;99567.78;4494300;31;34322;-59
2022/07/10 03:06:22;;;;;;;2.42;1.40;;;;;;;21.71;47.91;99575.91;4494573;31;33964;-62
2022/07/10 03:08:50;;;;;;;2.42;1.27;;;;;;;21.38;48.86;99576.31;4497468;31;32636;-59
2022/07/10 03:11:17;;;;;;;3.10;1.50;;;;;;;21.76;47.98;99569.88;4495106;31;35215;-60
2022/07/10 03:13:45;;;;;;;2.33;1.30;;;;;;;21.77;47.86;99571.59;4499104;31;34973;-58
2022/07/10 03:16:13;;;;;;;3.28;1.52;;;;;;;21.69;48.06;99571.69;4499233;31;33296;-58
2022/07/10 03:18:40;;;;;;;3.55;1.62;;;;;;;21.39;48.97;99564.41;4498059;31;33602;-60
2022/07/10 03:21:09;;;;;;;2.80;1.40;;;;;;;21.68;48.41;99562.66;4496776;31;35218;-60
2022/07/10 03:23:39;;;;;;;2.08;1.40;;;;;;;21.77;48.10;99563.41;4499290;31;34028;-59
2022/07/10 03:26:07;;;;;;;3.85;2.03;;;;;;;21.71;48.38;99562.28;4496235;31;32205;-59
2022/07/10 03:28:35;;;;;;;2.72;1.70;;;;;;;21.41;49.08;99550.56;4495939;31;33802;-61
2022/07/10 03:31:04;;;;;;;3.03;1.55;;;;;;;21.76;48.18;99557.09;4484395;31;35218;-61
2022/07/10 03:33:31;;;;;;;3.45;1.58;;;;;;;21.77;48.32;99563.41;4496875;31;34163;-60
2022/07/10 03:36:01;;;;;;;3.00;1.75;;;;;;;22.08;47.49;99560.38;4498991;31;33575;-60
2022/07/10 03:38:28;;;;;;;4.50;1.85;;;;;;;21.92;47.94;99547.84;4494440;31;33433;-60
2022/07/10 03:40:56;;;;;;;3.08;1.70;;;;;;;22.27;47.06;99546.13;4495118;31;33907;-59
2022/07/10 03:43:24;;;;;;;2.80;1.40;;;;;;;22.50;46.63;99534.19;4496569;31;34852;-60
2022/07/10 03:45:52;;;;;;;4.75;2.03;;;;;;;22.23;47.17;99544.00;4497485;31;34716;-59
2022/07/10 03:48:19;;;;;;;3.33;1.70;;;;;;;22.28;47.25;99530.66;4498479;31;33705;-60
2022/07/10 03:50:50;;;;;;;3.17;1.70;;;;;;;22.58;46.44;99534.03;4499969;31;35250;-59
2022/07/10 03:53:21;;;;;;;3.72;2.03;;;;;;;22.42;46.75;99537.06;4491394;31;33421;-58
2022/07/10 03:55:49;;;;;;;4.57;2.08;;;;;;;22.01;47.95;99545.84;4499177;31;33670;-61
2022/07/10 03:58:16;;;;;;;3.97;2.10;;;;;;;21.90;48.21;99554.53;4501292;31;33845;-59
2022/07/10 04:00:44;;;;;;;4.10;2.30;;;;;;;21.79;48.63;99542.25;4497800;31;33739;-59
2022/07/10 04:03:13;;;;;;;4.68;1.85;;;;;;;21.39;49.60;99539.06;4502695;31;35173;-59
2022/07/10 04:05:40;;;;;;;3.22;2.00;;;;;;;21.53;49.55;99540.06;4500386;31;34182;-60
2022/07/10 04:08:08;;;;;;;3.28;1.90;;;;;;;21.29;50.11;99538.47;4500906;31;33320;-59
2022/07/10 04:10:37;;;;;;;4.80;1.95;;;;;;;21.06;50.85;99531.25;4498938;31;35152;-59
2022/07/10 04:13:04;;;;;;;2.83;1.70;;;;;;;20.88;51.44;99537.06;4501436;31;35248;-60
2022/07/10 04:15:32;;;;;;;5.10;2.53;;;;;;;20.34;52.98;99539.91;4498316;31;34699;-60
2022/07/10 04:17:59;;;;;;;4.47;2.10;;;;;;;20.65;52.30;99541.72;4498733;31;33603;-59
2022/07/10 04:20:27;;;;;;;3.67;2.05;;;;;;;20.90;51.55;99534.16;4499909;31;33943;-59
2022/07/10 04:22:54;;;;;;;5.18;2.03;;;;;;;20.37;53.21;99535.97;4500149;31;35073;-60
2022/07/10 04:25:22;;;;;;;2.80;1.70;;;;;;;21.02;51.66;99532.62;4499902;31;34317;-61
2022/07/10 04:27:50;;;;;;;4.22;2.35;;;;;;;20.90;51.84;99531.44;4500697;31;33479;-61
2022/07/10 04:30:17;;;;;;;3.70;1.80;;;;;;;21.63;50.11;99524.25;4497181;31;35208;-61
2022/07/10 04:32:45;;;;;;;5.15;2.00;;;;;;;21.93;49.41;99529.63;4501046;31;34073;-60
2022/07/10 04:35:13;;;;;;;3.20;1.70;;;;;;;21.93;49.18;99522.31;4487078;31;32545;-59
2022/07/10 04:37:40;;;;;;;5.22;2.33;;;;;;;21.56;49.97;99516.00;4490667;31;35413;-60
2022/07/10 04:40:09;;;;;;;3.30;1.83;;;;;;;21.86;49.55;99521.37;4499820;31;33787;-61
2022/07/10 04:42:36;;;;;;;3.05;1.92;;;;;;;22.14;48.92;99523.34;4482449;32;33652;-61
2022/07/10 04:45:04;;;;;;;4.35;1.90;;;;;;;22.16;48.90;99513.97;4488147;31;33813;-60
2022/07/10 04:47:32;;;;;;;4.85;1.87;;;;;;;22.08;49.00;99514.88;4500159;31;33917;-60
2022/07/10 04:49:59;;;;;;;3.42;1.98;;;;;;;22.17;48.71;99510.19;4499741;31;34705;-60
2022/07/10 04:52:27;;;;;;;3.78;2.03;;;;;;;21.95;49.28;99514.75;4496517;31;34234;-60
2022/07/10 04:54:55;;;;;;;2.90;1.92;;;;;;;21.92;49.19;99506.13;4498297;31;34345;-59
2022/07/10 04:57:23;;;;;;;5.18;2.60;;;;;;;22.30;48.14;99498.56;4497477;31;33606;-62
2022/07/10 04:59:50;;;;;;;3.92;2.20;;;;;;;21.74;49.56;99506.59;4499940;31;34008;-62
2022/07/10 05:02:18;;;;;;;5.35;2.42;;;;;;;21.51;50.24;99507.59;4498358;31;33998;-60
2022/07/10 05:04:46;;;;;;;4.45;1.95;;;;;;;22.29;48.53;99503.19;4500599;31;34314;-63
2022/07/10 05:07:14;;;;;;;3.60;2.08;;;;;;;22.09;49.35;99497.53;4494423;31;33696;-60
2022/07/10 05:09:42;;;;;;;5.50;2.00;;;;;;;22.72;47.51;99496.78;4494095;31;34819;-60
2022/07/10 05:12:09;;;;;;;3.72;1.92;;;;;;;22.14;48.51;99499.66;4499800;31;33952;-60
2022/07/10 05:14:37;;;;;;;3.58;2.30;;;;;;;22.26;48.26;99494.56;4484986;32;33443;-62
2022/07/10 05:17:04;;;;;;;3.80;2.28;;;;;;;21.55;50.42;99506.16;4484967;32;33823;-62
2022/07/10 05:19:32;;;;;;;4.10;1.87;;;;;;;21.33;51.03;99505.22;4495697;31;34039;-60
2022/07/10 05:22:00;;;;;;;4.05;1.90;;;;;;;21.45;50.82;99499.34;4499591;31;33941;-61
2022/07/10 05:24:27;;;;;;;4.82;2.47;;;;;;;21.46;50.72;99509.19;4499081;31;33873;-60
2022/07/10 05:26:55;;;;;;;5.93;2.10;;;;;;;20.78;52.79;99511.16;4497473;31;33644;-61
2022/07/10 05:29:22;;;;;;;4.53;2.17;;;;;;;21.46;51.21;99507.31;4500872;31;33803;-62
2022/07/10 05:31:50;;;;;;;3.12;2.17;;;;;;;21.57;50.53;99497.78;4497540;31;34869;-62
2022/07/10 05:34:18;;;;;;;4.05;2.25;;;;;;;21.51;51.03;99501.28;4495734;31;34320;-61
2022/07/10 05:36:46;;;;;;;4.62;2.35;;;;;;;21.41;50.92;99498.84;4500882;31;32714;-60
2022/07/10 05:39:13;;;;;;;3.97;2.10;;;;;;;20.98;51.80;99495.12;4499024;31;34892;-59
2022/07/10 05:41:41;;;;;;;3.83;2.30;;;;;;;20.92;51.82;99492.13;4497834;31;32805;-62
2022/07/10 05:44:08;;;;;;;4.45;2.30;;;;;;;21.10;51.24;99489.03;4497126;31;32561;-63
2022/07/10 05:46:36;;;;;;;5.28;2.67;;;;;;;21.23;51.08;99488.34;4497077;31;33678;-61
2022/07/10 05:49:04;;;;;;;5.87;2.45;;;;;;;20.86;51.95;99483.84;4500403;31;33933;-61
2022/07/10 05:51:32;;;;;;;3.35;2.20;;;;;;;21.04;51.83;99484.34;4499469;31;35119;-61
2022/07/10 05:54:11;;;;;;;5.18;2.55;;;;;;;21.09;51.22;99475.59;4499609;31;33735;-61
2022/07/10 05:56:39;;;;;;;4.72;2.05;;;;;;;20.87;51.75;99480.13;4498721;31;33977;-61
2022/07/10 05:59:07;;;;;;;3.90;2.30;;;;;;;21.48;50.77;99486.19;4484718;31;34072;-62
2022/07/10 06:01:35;;;;;;;4.07;2.35;;;;;;;21.38;50.85;99488.38;4497075;31;33900;-59
2022/07/10 06:04:03;;;;;;;3.70;2.08;;;;;;;21.73;50.35;99488.53;4497739;31;33560;-61
2022/07/10 06:06:31;;;;;;;4.22;2.17;;;;;;;21.77;49.76;99484.41;4498487;31;33701;-61
2022/07/10 06:08:59;;;;;;;4.47;2.10;;;;;;;21.94;49.27;99485.00;4500116;31;34013;-59
2022/07/10 06:11:26;;;;;;;4.60;2.15;;;;;;;21.61;50.17;99488.22;4500027;31;35143;-61
2022/07/10 06:13:54;;;;;;;4.30;1.95;;;;;;;22.31;48.89;99492.94;4498201;31;33801;-59
2022/07/10 06:16:21;;;;;;;4.22;2.28;;;;;;;22.08;48.83;99484.06;4495877;31;34967;-59
2022/07/10 06:18:50;;;;;;;3.20;1.80;;;;;;;22.59;47.96;99483.06;4499233;31;33098;-61
2022/07/10 06:21:21;;;;;;;4.43;2.35;;;;;;;23.32;46.72;99481.63;4499311;31;33974;-60
2022/07/10 06:23:49;;;;;;;3.58;2.10;;;;;;;22.89;46.77;99480.94;4492908;31;34817;-61
2022/07/10 06:26:17;;;;;;;3.70;1.90;;;;;;;22.31;48.13;99479.31;4488311;31;34691;-60
2022/07/10 06:28:44;;;;;;;5.95;2.53;;;;;;;22.76;47.31;99478.97;4497231;31;32470;-63
2022/07/10 06:31:12;;;;;;;4.05;2.20;;;;;;;22.76;47.04;99478.97;4499333;31;34223;-60
2022/07/10 06:33:40;;;;;;;3.62;2.35;;;;;;;22.88;46.84;99488.28;4495688;31;31936;-62
2022/07/10 06:36:07;;;;;;;3.30;2.00;;;;;;;22.96;46.54;99498.25;4499969;31;34620;-61
2022/07/10 06:38:35;;;;;;;3.60;2.05;;;;;;;22.91;46.77;99487.88;4500208;31;33927;-61
2022/07/10 06:41:04;;;;;;;3.55;1.98;;;;;;;23.00;46.75;99489.44;4498853;31;33801;-61
2022/07/10 06:43:31;;;;;;;3.58;1.90;;;;;;;23.11;45.33;99479.00;4499144;31;34937;-61
2022/07/10 06:45:59;;;;;;;4.43;1.95;;;;;;;23.34;45.29;99486.88;4498093;31;34007;-63
2022/07/10 06:48:27;;;;;;;3.22;1.90;;;;;;;23.01;45.64;99480.22;4497621;31;33963;-60
2022/07/10 06:50:55;;;;;;;2.90;1.87;;;;;;;22.50;46.48;99477.78;4487101;31;34136;-63
2022/07/10 06:53:26;;;;;;;4.93;2.25;;;;;;;23.11;45.86;99481.72;4497176;31;34301;-63
2022/07/10 06:55:54;;;;;;;3.35;1.80;;;;;;;23.24;45.33;99482.66;4483904;32;34096;-62
2022/07/10 06:58:21;;;;;;;6.93;2.50;;;;;;;22.77;45.89;99486.12;4481745;31;33773;-61
2022/07/10 07:00:49;;;;;;;3.83;2.20;;;;;;;22.75;45.68;99480.88;4487114;31;35314;-60
2022/07/10 07:03:17;;;;;;;3.42;2.00;;;;;;;22.85;45.49;99488.69;4494880;31;34316;-63
2022/07/10 07:05:44;;;;;;;3.95;2.12;;;;;;;23.22;44.92;99479.28;4498033;31;32558;-61
2022/07/10 07:08:13;;;;;;;5.60;2.20;;;;;;;22.89;45.46;99478.22;4497417;31;34702;-60
2022/07/10 07:10:41;;;;;;;3.30;1.80;;;;;;;22.60;44.69;99479.28;4499546;31;34986;-60
2022/07/10 07:13:09;;;;;;;4.22;2.03;;;;;;;22.56;44.90;99479.69;4499084;31;33214;-60
2022/07/10 07:15:41;;;;;;;4.47;2.05;;;;;;;22.59;44.67;99483.06;4499527;31;34776;-64
2022/07/10 07:18:12;;;;;;;3.92;2.05;;;;;;;22.62;44.12;99480.78;4499583;31;33727;-63
2022/07/10 07:23:27;;;;;;;3.58;1.85;;;;;;;23.36;44.01;99473.88;4499036;31;34192;-63
2022/07/10 07:25:55;;;;;;;3.35;1.98;;;;;;;23.31;42.82;99482.69;4497749;31;33655;-62
2022/07/10 07:28:23;;;;;;;3.30;1.62;;;;;;;23.53;42.29;99482.53;4501671;31;35033;-60
2022/07/10 07:30:51;;;;;;;3.67;1.50;;;;;;;23.54;42.22;99489.69;4494960;31;34146;-63
2022/07/10 07:33:18;;;;;;;3.22;1.73;;;;;;;23.32;42.54;99489.81;4485801;31;33514;-60
2022/07/10 07:35:46;;;;;;;2.35;1.37;;;;;;;23.40;41.85;99481.47;4489369;31;33943;-60
2022/07/10 07:38:14;;;;;;;3.15;1.40;;;;;;;23.55;41.82;99478.56;4499300;31;34637;-62
2022/07/10 07:40:41;;;;;;;2.78;1.60;;;;;;;23.37;39.66;99473.69;4499416;31;34148;-60
2022/07/10 07:43:09;;;;;;;2.42;1.50;;;;;;;23.58;40.41;99486.34;4467639;32;33482;-61
2022/07/10 07:45:37;;;;;;;3.78;1.77;;;;;;;23.58;41.14;99483.63;4454526;32;32331;-60
2022/07/10 07:48:04;;;;;;;3.53;1.60;;;;;;;23.73;41.51;99485.38;4458590;32;33512;-61
2022/07/10 07:50:33;;;;;;;2.12;1.42;;;;;;;23.82;40.24;99489.59;4466169;32;35062;-60
2022/07/10 07:53:02;;;;;;;3.80;1.87;;;;;;;23.96;39.86;99496.78;4468898;32;33453;-62
2022/07/10 07:55:32;;;;;;;2.58;1.52;;;;;;;23.57;41.11;99484.66;4467530;32;34875;-61
2022/07/10 07:58:00;;;;;;;2.53;1.40;;;;;;;23.34;41.30;99485.00;4454072;32;35091;-59
2022/07/10 08:00:29;;;;;;;2.45;1.45;;;;;;;23.81;39.87;99490.63;4464117;32;33554;-60
2022/07/10 08:02:57;;;;;;;2.90;1.60;;;;;;;24.17;39.36;99484.78;4465405;32;32379;-63
2022/07/10 08:05:26;;;;;;;2.70;1.37;;;;;;;24.08;38.37;99480.63;4466855;32;32194;-60
2022/07/10 08:07:56;;;;;;;3.08;1.45;;;;;;;24.45;38.20;99489.28;4469385;32;35127;-62
2022/07/10 08:10:28;;;;;;;3.25;1.62;;;;;;;24.73;38.02;99481.66;4463715;32;34416;-62
2022/07/10 08:12:56;;;;;;;2.87;1.30;;;;;;;24.63;37.78;99475.78;4467282;32;34648;-62
2022/07/10 08:15:23;;;;;;;3.70;1.40;;;;;;;24.69;36.53;99482.28;4466402;32;32401;-63
2022/07/10 08:17:53;;;;;;;2.03;1.25;;;;;;;24.27;37.38;99484.38;4469559;32;34035;-60
2022/07/10 08:20:22;;;;;;;3.25;1.73;;;;;;;23.97;37.83;99482.03;4468647;32;34915;-61
2022/07/10 08:22:51;;;;;;;2.72;1.50;;;;;;;23.87;38.17;99487.91;4467365;32;32028;-60
2022/07/10 08:25:27;;;;;;;2.92;1.58;;;;;;;23.87;37.63;99489.81;4467361;32;33708;-62
2022/07/10 08:28:00;;;;;;;4.05;1.60;;;;;;;24.34;36.81;99483.34;4467811;32;33014;-60
2022/07/10 08:30:29;;;;;;;3.20;1.67;;;;;;;24.59;36.83;99493.66;4464000;32;34079;-64
2022/07/10 08:32:56;;;;;;;2.78;1.55;;;;;;;24.37;37.22;99477.47;4467186;32;33542;-60
2022/07/10 08:35:24;;;;;;;2.65;1.67;;;;;;;24.22;37.08;99476.81;4467421;32;33688;-64
2022/07/10 08:37:52;;;;;;;2.92;1.50;;;;;;;23.88;38.29;99483.28;4469439;32;35272;-60
2022/07/10 08:40:21;;;;;;;2.97;1.77;;;;;;;24.27;37.76;99479.78;4469471;32;34908;-60
2022/07/10 08:42:49;;;;;;;2.70;1.40;;;;;;;24.45;36.68;99478.31;4495142;31;34739;-64
2022/07/10 08:45:17;;;;;;;3.47;1.70;;;;;;;23.90;37.73;99482.03;4500033;31;35094;-60
2022/07/10 08:47:44;;;;;;;2.17;1.37;;;;;;;23.96;37.77;99480.38;4498394;31;33819;-63
2022/07/10 08:50:23;;;;;;;3.72;1.50;;;;;;;23.91;36.98;99461.00;4499397;31;33918;-60
2022/07/10 08:52:58;;;;;;;3.08;1.58;;;;;;;24.45;35.59;99464.66;4495514;31;33554;-60
2022/07/10 08:55:26;;;;;;;2.62;1.42;;;;;;;24.57;35.38;99468.44;4488244;31;34116;-60
2022/07/10 08:57:55;;;;;;;2.40;1.20;;;;;;;24.46;35.75;99464.41;4493829;31;33738;-60
2022/07/10 09:00:24;;;;;;;3.72;1.37;;;;;;;24.53;34.91;99475.37;4489587;31;34470;-59
2022/07/10 09:02:53;;;;;;;5.97;1.45;;;;;;;24.74;34.58;99480.59;4494632;31;34518;-62
2022/07/10 09:05:25;;;;;;;1.73;1.02;;;;;;;24.54;33.99;99458.75;4496307;31;34152;-60
2022/07/10 09:07:54;;;;;;;3.25;1.42;;;;;;;25.05;34.40;99459.91;4495424;31;33611;-62
2022/07/10 09:10:26;;;;;;;2.65;1.33;;;;;;;24.80;33.66;99457.03;4497543;31;33798;-60
2022/07/10 09:12:58;;;;;;;2.70;1.60;;;;;;;25.28;32.28;99451.22;4499522;31;34397;-63
2022/07/10 09:15:29;;;;;;;1.92;1.02;;;;;;;25.12;32.53;99455.28;4499311;31;32740;-62
2022/07/10 09:18:07;;;;;;;4.20;1.45;;;;;;;25.29;31.87;99456.47;4490258;31;34175;-61
2022/07/10 09:20:37;;;;;;;4.55;1.65;;;;;;;25.10;33.65;99449.12;4496705;31;32778;-60
2022/07/10 09:23:20;;;;;;;3.87;1.25;;;;;;;25.24;34.20;99460.94;4498820;31;34807;-59
2022/07/10 09:25:50;;;;;;;2.58;1.25;;;;;;;25.42;33.96;99454.72;4496323;31;32238;-60
2022/07/10 09:28:19;;;;;;;2.83;1.20;;;;;;;25.55;33.21;99463.72;4499557;31;32435;-62
2022/07/10 09:30:48;;;;;;;2.62;1.20;;;;;;;25.45;32.62;99457.03;4499147;31;32964;-61
2022/07/10 09:33:26;;;;;;;2.72;1.17;;;;;;;25.46;32.53;99456.81;4499643;31;34967;-61
2022/07/10 09:36:04;;;;;;;1.50;0.93;;;;;;;25.57;32.48;99452.53;4498922;31;34319;-60
2022/07/10 09:38:45;;;;;;;1.83;1.10;;;;;;;25.52;31.31;99455.09;4495347;31;33982;-63
2022/07/10 09:41:16;;;;;;;2.75;1.30;;;;;;;26.08;31.47;99442.53;4487746;31;34005;-62
2022/07/10 09:43:50;;;;;;;2.10;1.20;;;;;;;26.16;33.01;99454.09;4488079;31;32094;-62
2022/07/10 09:46:19;;;;;;;2.25;1.30;;;;;;;25.46;34.24;99453.25;4487365;31;32820;-63
2022/07/10 09:48:48;;;;;;;3.17;1.25;;;;;;;25.78;33.36;99457.69;4497059;31;33769;-63
2022/07/10 09:51:15;;;;;;;3.33;1.83;;;;;;;25.88;32.19;99456.41;4498535;31;32684;-62
2022/07/10 09:53:44;;;;;;;1.75;1.10;;;;;;;26.22;31.41;99455.91;4498808;31;34822;-59
2022/07/10 09:56:12;;;;;;;3.33;1.45;;;;;;;26.01;31.96;99450.81;4499944;31;33418;-63
2022/07/10 09:58:40;;;;;;;1.77;1.15;;;;;;;26.06;32.38;99452.87;4492976;31;32826;-62
2022/07/10 10:01:08;;;;;;;2.78;1.10;;;;;;;26.48;32.03;99446.66;4499906;31;32601;-61
2022/07/10 10:03:38;;;;;;;6.87;1.50;;;;;;;26.48;31.01;99445.81;4497722;31;33303;-60
2022/07/10 10:06:14;;;;;;;2.47;1.10;;;;;;;26.73;31.16;99436.69;4499155;31;32488;-58
2022/07/10 10:09:03;;;;;;;1.92;0.93;;;;;;;27.31;30.87;99425.25;4485671;31;32937;-60
2022/07/10 10:11:32;;;;;;;4.65;0.95;;;;;;;26.48;31.08;99440.31;4493915;31;35439;-63
2022/07/10 10:14:01;;;;;;;2.00;1.00;;;;;;;26.61;30.45;99422.88;4492987;31;32147;-59
2022/07/10 10:16:29;;;;;;;2.42;1.15;;;;;;;26.63;30.26;99415.25;4496392;31;33900;-60
2022/07/10 10:21:54;;;;;;;2.85;1.02;;;;;;;26.52;30.01;99411.38;4497486;31;32802;-63
2022/07/10 10:24:22;;;;;;;0.65;0.65;;;;;;;27.18;29.39;99404.28;4498925;31;33542;-61
2022/07/10 10:26:50;;;;;;;1.60;1.00;;;;;;;27.37;28.34;99400.44;4483784;32;34912;-60
2022/07/10 10:29:17;;;;;;;2.25;0.93;;;;;;;26.92;28.53;99403.53;4491104;31;32541;-60
2022/07/10 10:31:45;;;;;;;2.12;1.12;;;;;;;27.39;28.59;99409.31;4498159;31;33100;-61
2022/07/10 10:34:17;;;;;;;1.25;0.80;;;;;;;27.52;28.14;99382.72;4484918;31;33109;-61
2022/07/10 10:36:45;;;;;;;2.50;0.90;;;;;;;27.43;27.35;99398.69;4498555;31;33800;-63
2022/07/10 10:39:19;;;;;;;0.98;0.73;;;;;;;27.50;27.48;99402.16;4498586;31;34954;-61
2022/07/10 10:41:54;;;;;;;6.07;1.17;;;;;;;27.83;27.42;99387.09;4498443;31;35190;-63
2022/07/10 10:44:23;;;;;;;2.00;1.05;;;;;;;27.84;28.16;99410.81;4499575;31;33752;-60
2022/07/10 10:46:56;;;;;;;2.45;0.95;;;;;;;27.38;28.32;99395.78;4498801;31;32510;-60
2022/07/10 10:49:25;;;;;;;2.80;1.08;;;;;;;27.31;28.85;99397.78;4498494;31;34702;-59
2022/07/10 10:52:00;;;;;;;3.62;1.27;;;;;;;27.45;29.53;99396.56;4496452;31;33945;-60
2022/07/10 10:54:31;;;;;;;1.83;0.95;;;;;;;27.27;29.64;99399.34;4494474;31;32293;-64
2022/07/10 10:57:15;;;;;;;1.70;1.02;;;;;;;27.69;29.78;99407.63;4499600;31;32737;-62
2022/07/10 10:59:48;;;;;;;2.78;1.12;;;;;;;27.06;29.92;99393.25;4497892;31;32944;-59
2022/07/10 11:02:29;;;;;;;1.90;0.93;;;;;;;26.96;29.65;99392.91;4495895;31;32536;-62
2022/07/10 11:05:17;;;;;;;1.77;1.00;;;;;;;27.20;28.93;99387.59;4494506;31;33115;-62
2022/07/10 11:07:53;;;;;;;2.20;1.00;;;;;;;27.05;28.49;99382.47;4486999;31;32429;-64
2022/07/10 11:10:31;;;;;;;6.78;0.98;;;;;;;27.03;29.40;99388.19;4487300;31;34034;-63
2022/07/10 11:13:04;;;;;;;2.42;1.27;;;;;;;26.88;28.20;99387.75;4498274;31;33664;-62
2022/07/10 11:15:34;;;;;;;1.77;0.80;;;;;;;26.85;28.19;99369.81;4500286;31;32263;-62
2022/07/10 11:18:10;;;;;;;1.17;0.70;;;;;;;27.62;27.42;99371.97;4498927;31;33595;-63
2022/07/10 11:20:46;;;;;;;2.00;1.10;;;;;;;27.47;27.32;99371.56;4498958;31;32686;-60
2022/07/10 11:23:32;;;;;;;3.10;1.25;;;;;;;27.24;27.50;99375.91;4495404;31;32652;-59
2022/07/10 11:26:12;;;;;;;5.53;1.27;;;;;;;26.39;29.87;99397.75;4500749;31;32280;-60
2022/07/10 11:28:50;;;;;;;2.92;1.02;;;;;;;25.96;31.11;99404.03;4488077;31;33610;-60
2022/07/10 11:31:19;;;;;;;2.22;1.17;;;;;;;25.87;31.18;99413.59;4492457;31;34054;-60
2022/07/10 11:33:48;;;;;;;3.58;1.15;;;;;;;25.50;31.98;99424.34;4497505;31;33956;-63
2022/07/10 11:36:21;;;;;;;3.33;1.50;;;;;;;25.55;31.01;99428.13;4494080;31;33160;-59
2022/07/10 11:38:59;;;;;;;5.37;1.60;;;;;;;25.39;31.10;99425.84;4489215;31;33927;-63
2022/07/10 11:41:27;;;;;;;1.73;0.90;;;;;;;25.62;30.48;99421.72;4496881;31;34126;-61
2022/07/10 11:43:57;;;;;;;1.42;1.00;;;;;;;25.30;30.35;99421.72;4497063;31;34005;-64
2022/07/10 11:46:29;;;;;;;1.65;1.00;;;;;;;24.30;33.10;99419.19;4498053;31;34095;-61
2022/07/10 11:48:58;;;;;;;2.45;1.20;;;;;;;24.29;32.93;99414.75;4493947;31;32335;-62
2022/07/10 11:51:30;;;;;;;3.65;1.12;;;;;;;24.29;33.67;99422.97;4488601;31;34084;-61